sensor_id;sensor_type;location;lat;lon;timestamp;pressure;altitude;pressure_sealevel;temperature;humidity
70925;BME280;58577;52.410;13.242;2023-02-01T00:01:41;-12376.06;;;2.62;100.00
70925;BME280;58577;52.410;13.242;2023-02-01T00:04:27;-12375.25;;;2.57;100.00
70925;BME280;58577;52.410;13.242;2023-02-01T00:07:12;-12376.06;;;2.62;100.00
70925;BME280;58577;52.410;13.242;2023-02-01T00:09:58;-12376.59;;;2.65;100.00
70925;BME280;58577;52.410;13.242;2023-02-01T00:12:44;-12375.88;;;2.61;100.00
70925;BME280;58577;52.410;13.242;2023-02-01T00:15:30;-12375.50;;;2.59;100.00
70925;BME280;58577;52.410;13.242;2023-02-01T00:18:16;-12377.22;;;2.68;100.00
70925;BME280;58577;52.410;13.242;2023-02-01T00:21:02;-12379.31;;;2.80;100.00
70925;BME280;58577;52.410;13.242;2023-02-01T00:23:48;-12377.41;;;2.69;100.00
70925;BME280;58577;52.410;13.242;2023-02-01T00:26:36;-12378.78;;;2.77;100.00
70925;BME280;58577;52.410;13.242;2023-02-01T00:29:22;-12379.31;;;2.80;100.00
70925;BME280;58577;52.410;13.242;2023-02-01T00:32:08;-12380.94;;;2.89;100.00
70925;BME280;58577;52.410;13.242;2023-02-01T00:34:53;-12381.22;;;2.91;100.00
70925;BME280;58577;52.410;13.242;2023-02-01T00:37:39;-12380.31;;;2.86;100.00
70925;BME280;58577;52.410;13.242;2023-02-01T00:40:25;-12380.94;;;2.89;100.00
70925;BME280;58577;52.410;13.242;2023-02-01T00:43:11;-12378.13;;;2.73;100.00
70925;BME280;58577;52.410;13.242;2023-02-01T00:45:57;-12378.69;;;2.77;100.00
70925;BME280;58577;52.410;13.242;2023-02-01T00:48:44;-12376.97;;;2.67;100.00
70925;BME280;58577;52.410;13.242;2023-02-01T00:51:30;-12376.41;;;2.64;100.00
70925;BME280;58577;52.410;13.242;2023-02-01T00:54:16;-12375.34;;;2.58;100.00
70925;BME280;58577;52.410;13.242;2023-02-01T00:57:02;-12375.06;;;2.56;100.00
70925;BME280;58577;52.410;13.242;2023-02-01T00:59:48;-12374.97;;;2.55;100.00
70925;BME280;58577;52.410;13.242;2023-02-01T01:02:34;-12374.16;;;2.51;100.00
70925;BME280;58577;52.410;13.242;2023-02-01T01:05:20;-12373.34;;;2.46;100.00
70925;BME280;58577;52.410;13.242;2023-02-01T01:08:06;-12372.53;;;2.42;100.00
70925;BME280;58577;52.410;13.242;2023-02-01T01:10:51;-12371.72;;;2.37;100.00
70925;BME280;58577;52.410;13.242;2023-02-01T01:13:38;-12371.44;;;2.35;100.00
70925;BME280;58577;52.410;13.242;2023-02-01T01:16:25;-12371.34;;;2.35;100.00
70925;BME280;58577;52.410;13.242;2023-02-01T01:19:11;-12372.06;;;2.39;100.00
70925;BME280;58577;52.410;13.242;2023-02-01T01:21:57;-12374.88;;;2.55;100.00
70925;BME280;58577;52.410;13.242;2023-02-01T01:24:43;-12374.88;;;2.55;100.00
70925;BME280;58577;52.410;13.242;2023-02-01T01:27:29;-12374.69;;;2.54;100.00
70925;BME280;58577;52.410;13.242;2023-02-01T01:30:15;-12376.41;;;2.64;99.64
70925;BME280;58577;52.410;13.242;2023-02-01T01:33:01;-12376.97;;;2.67;99.11
70925;BME280;58577;52.410;13.242;2023-02-01T01:35:47;-12378.13;;;2.73;98.04
70925;BME280;58577;52.410;13.242;2023-02-01T01:38:34;-12378.50;;;2.75;97.90
70925;BME280;58577;52.410;13.242;2023-02-01T01:41:23;-12376.97;;;2.67;99.20
70925;BME280;58577;52.410;13.242;2023-02-01T01:47:37;-12376.69;;;2.65;98.67
70925;BME280;58577;52.410;13.242;2023-02-01T01:50:31;-12377.22;;;2.68;97.50
70925;BME280;58577;52.410;13.242;2023-02-01T01:53:24;-12376.25;;;2.63;97.87
70925;BME280;58577;52.410;13.242;2023-02-01T01:56:12;-12376.88;;;2.66;97.55
70925;BME280;58577;52.410;13.242;2023-02-01T01:58:59;-12378.88;;;2.78;96.15
70925;BME280;58577;52.410;13.242;2023-02-01T02:01:46;-12377.59;;;2.70;96.62
70925;BME280;58577;52.410;13.242;2023-02-01T02:04:33;-12377.31;;;2.69;97.30
70925;BME280;58577;52.410;13.242;2023-02-01T02:07:24;-12377.88;;;2.72;96.66
70925;BME280;58577;52.410;13.242;2023-02-01T02:10:13;-12379.13;;;2.79;96.66
70925;BME280;58577;52.410;13.242;2023-02-01T02:12:59;-12378.78;;;2.77;96.43
70925;BME280;58577;52.410;13.242;2023-02-01T02:16:12;-12377.88;;;2.72;97.43
70925;BME280;58577;52.410;13.242;2023-02-01T02:26:13;-12375.78;;;2.60;98.10
70925;BME280;58577;52.410;13.242;2023-02-01T02:36:01;-12377.22;;;2.68;97.24
70925;BME280;58577;52.410;13.242;2023-02-01T02:42:11;-12377.22;;;2.68;98.78
70925;BME280;58577;52.410;13.242;2023-02-01T02:45:22;-12378.97;;;2.78;97.89
70925;BME280;58577;52.410;13.242;2023-02-01T02:48:46;-12380.50;;;2.87;97.05
70925;BME280;58577;52.410;13.242;2023-02-01T02:51:42;-12380.59;;;2.87;97.36
70925;BME280;58577;52.410;13.242;2023-02-01T02:54:50;-12381.50;;;2.92;96.42
70925;BME280;58577;52.410;13.242;2023-02-01T02:57:41;-12381.50;;;2.92;97.47
70925;BME280;58577;52.410;13.242;2023-02-01T03:00:48;-12380.22;;;2.85;96.86
70925;BME280;58577;52.410;13.242;2023-02-01T03:03:53;-12379.50;;;2.81;96.96
70925;BME280;58577;52.410;13.242;2023-02-01T03:06:57;-12379.03;;;2.79;98.02
70925;BME280;58577;52.410;13.242;2023-02-01T03:09:45;-12379.31;;;2.80;97.74
70925;BME280;58577;52.410;13.242;2023-02-01T03:12:36;-12379.78;;;2.83;97.28
70925;BME280;58577;52.410;13.242;2023-02-01T03:19:07;-12382.03;;;2.95;96.37
70925;BME280;58577;52.410;13.242;2023-02-01T03:22:01;-12382.13;;;2.96;95.72
70925;BME280;58577;52.410;13.242;2023-02-01T03:24:53;-12383.31;;;3.03;95.94
70925;BME280;58577;52.410;13.242;2023-02-01T03:27:46;-12383.56;;;3.04;94.91
70925;BME280;58577;52.410;13.242;2023-02-01T03:30:37;-12383.94;;;3.06;94.92
70925;BME280;58577;52.410;13.242;2023-02-01T03:33:26;-12382.13;;;2.96;95.25
70925;BME280;58577;52.410;13.242;2023-02-01T03:36:42;-12383.66;;;3.05;94.58
70925;BME280;58577;52.410;13.242;2023-02-01T03:42:43;-12383.94;;;3.06;94.78
70925;BME280;58577;52.410;13.242;2023-02-01T03:45:36;-12383.66;;;3.05;94.68
70925;BME280;58577;52.410;13.242;2023-02-01T03:48:28;-12383.47;;;3.04;93.85
70925;BME280;58577;52.410;13.242;2023-02-01T03:51:16;-12385.56;;;3.15;93.81
70925;BME280;58577;52.410;13.242;2023-02-01T03:54:03;-12384.66;;;3.10;93.46
70925;BME280;58577;52.410;13.242;2023-02-01T03:56:52;-12387.00;;;3.24;92.63
70925;BME280;58577;52.410;13.242;2023-02-01T03:59:44;-12386.56;;;3.21;93.73
70925;BME280;58577;52.410;13.242;2023-02-01T04:02:30;-12387.47;;;3.26;93.64
70925;BME280;58577;52.410;13.242;2023-02-01T04:05:16;-12389.00;;;3.35;92.91
70925;BME280;58577;52.410;13.242;2023-02-01T04:08:09;-12387.72;;;3.28;93.45
70925;BME280;58577;52.410;13.242;2023-02-01T04:10:55;-12388.38;;;3.31;93.33
70925;BME280;58577;52.410;13.242;2023-02-01T04:13:41;-12389.00;;;3.35;93.76
70925;BME280;58577;52.410;13.242;2023-02-01T04:16:27;-12389.44;;;3.38;93.62
70925;BME280;58577;52.410;13.242;2023-02-01T04:19:13;-12390.53;;;3.44;93.51
70925;BME280;58577;52.410;13.242;2023-02-01T04:21:59;-12390.91;;;3.46;92.08
70925;BME280;58577;52.410;13.242;2023-02-01T04:24:45;-12391.81;;;3.51;92.25
70925;BME280;58577;52.410;13.242;2023-02-01T04:27:31;-12392.72;;;3.56;91.89
70925;BME280;58577;52.410;13.242;2023-02-01T04:30:17;-12392.16;;;3.53;92.31
70925;BME280;58577;52.410;13.242;2023-02-01T04:33:03;-12393.25;;;3.59;91.09
70925;BME280;58577;52.410;13.242;2023-02-01T04:35:52;-12392.53;;;3.55;93.31
70925;BME280;58577;52.410;13.242;2023-02-01T04:38:37;-12393.63;;;3.61;91.09
70925;BME280;58577;52.410;13.242;2023-02-01T04:41:23;-12393.97;;;3.63;92.41
70925;BME280;58577;52.410;13.242;2023-02-01T04:44:14;-12393.78;;;3.62;91.77
70925;BME280;58577;52.410;13.242;2023-02-01T04:47:00;-12394.34;;;3.65;91.21
70925;BME280;58577;52.410;13.242;2023-02-01T04:49:46;-12393.78;;;3.62;92.13
70925;BME280;58577;52.410;13.242;2023-02-01T04:52:32;-12395.06;;;3.69;90.58
70925;BME280;58577;52.410;13.242;2023-02-01T04:55:18;-12395.44;;;3.71;91.13
70925;BME280;58577;52.410;13.242;2023-02-01T04:58:04;-12395.50;;;3.72;92.02
70925;BME280;58577;52.410;13.242;2023-02-01T05:00:49;-12395.44;;;3.71;90.58
70925;BME280;58577;52.410;13.242;2023-02-01T05:03:35;-12396.41;;;3.77;90.46
70925;BME280;58577;52.410;13.242;2023-02-01T05:06:21;-12396.16;;;3.76;90.54
70925;BME280;58577;52.410;13.242;2023-02-01T05:09:07;-12395.44;;;3.71;91.80
70925;BME280;58577;52.410;13.242;2023-02-01T05:11:53;-12393.72;;;3.62;92.18
70925;BME280;58577;52.410;13.242;2023-02-01T05:14:58;-12395.88;;;3.74;91.30
70925;BME280;58577;52.410;13.242;2023-02-01T05:17:43;-12395.69;;;3.73;91.17
70925;BME280;58577;52.410;13.242;2023-02-01T05:20:29;-12396.06;;;3.75;91.21
70925;BME280;58577;52.410;13.242;2023-02-01T05:23:15;-12395.25;;;3.70;91.46
70925;BME280;58577;52.410;13.242;2023-02-01T05:26:01;-12395.25;;;3.70;90.52
70925;BME280;58577;52.410;13.242;2023-02-01T05:28:47;-12395.97;;;3.74;91.49
70925;BME280;58577;52.410;13.242;2023-02-01T05:31:33;-12395.59;;;3.72;91.92
70925;BME280;58577;52.410;13.242;2023-02-01T05:34:19;-12395.59;;;3.72;92.42
70925;BME280;58577;52.410;13.242;2023-02-01T05:37:05;-12395.16;;;3.70;92.04
70925;BME280;58577;52.410;13.242;2023-02-01T05:39:51;-12395.78;;;3.73;91.70
70925;BME280;58577;52.410;13.242;2023-02-01T05:42:36;-12395.78;;;3.73;91.80
70925;BME280;58577;52.410;13.242;2023-02-01T05:45:22;-12396.31;;;3.77;91.23
70925;BME280;58577;52.410;13.242;2023-02-01T05:48:08;-12394.88;;;3.68;91.10
70925;BME280;58577;52.410;13.242;2023-02-01T05:50:54;-12395.78;;;3.73;92.07
70925;BME280;58577;52.410;13.242;2023-02-01T05:53:40;-12395.69;;;3.73;91.31
70925;BME280;58577;52.410;13.242;2023-02-01T05:56:26;-12395.25;;;3.70;90.99
70925;BME280;58577;52.410;13.242;2023-02-01T05:59:12;-12394.25;;;3.65;91.99
70925;BME280;58577;52.410;13.242;2023-02-01T06:01:57;-12395.25;;;3.70;92.12
70925;BME280;58577;52.410;13.242;2023-02-01T06:04:43;-12393.25;;;3.59;92.30
70925;BME280;58577;52.410;13.242;2023-02-01T06:07:29;-12396.41;;;3.77;91.23
70925;BME280;58577;52.410;13.242;2023-02-01T06:10:16;-12395.59;;;3.72;91.67
70925;BME280;58577;52.410;13.242;2023-02-01T06:13:03;-12395.88;;;3.74;91.32
70925;BME280;58577;52.410;13.242;2023-02-01T06:15:49;-12395.44;;;3.71;91.02
70925;BME280;58577;52.410;13.242;2023-02-01T06:18:35;-12395.88;;;3.74;91.22
70925;BME280;58577;52.410;13.242;2023-02-01T06:21:21;-12395.78;;;3.73;92.23
70925;BME280;58577;52.410;13.242;2023-02-01T06:24:09;-12396.16;;;3.76;91.54
70925;BME280;58577;52.410;13.242;2023-02-01T06:26:56;-12395.78;;;3.73;91.79
70925;BME280;58577;52.410;13.242;2023-02-01T06:29:42;-12395.59;;;3.72;92.16
70925;BME280;58577;52.410;13.242;2023-02-01T06:32:27;-12394.88;;;3.68;91.76
70925;BME280;58577;52.410;13.242;2023-02-01T06:35:13;-12393.63;;;3.61;92.15
70925;BME280;58577;52.410;13.242;2023-02-01T06:38:01;-12393.97;;;3.63;91.53
70925;BME280;58577;52.410;13.242;2023-02-01T06:40:52;-12393.06;;;3.58;92.30
70925;BME280;58577;52.410;13.242;2023-02-01T06:43:39;-12393.78;;;3.62;92.61
70925;BME280;58577;52.410;13.242;2023-02-01T06:46:25;-12393.16;;;3.59;92.71
70925;BME280;58577;52.410;13.242;2023-02-01T06:49:11;-12392.53;;;3.55;92.20
70925;BME280;58577;52.410;13.242;2023-02-01T06:51:57;-12392.53;;;3.55;91.87
70925;BME280;58577;52.410;13.242;2023-02-01T06:54:45;-12392.53;;;3.55;92.03
70925;BME280;58577;52.410;13.242;2023-02-01T06:57:31;-12393.34;;;3.60;91.55
70925;BME280;58577;52.410;13.242;2023-02-01T07:00:18;-12393.25;;;3.59;92.20
70925;BME280;58577;52.410;13.242;2023-02-01T07:03:05;-12394.16;;;3.64;90.86
70925;BME280;58577;52.410;13.242;2023-02-01T07:05:55;-12393.97;;;3.63;91.35
70925;BME280;58577;52.410;13.242;2023-02-01T07:08:41;-12393.53;;;3.61;91.10
70925;BME280;58577;52.410;13.242;2023-02-01T07:11:26;-12392.88;;;3.57;91.59
70925;BME280;58577;52.410;13.242;2023-02-01T07:14:13;-12393.78;;;3.62;91.72
70925;BME280;58577;52.410;13.242;2023-02-01T07:16:59;-12393.88;;;3.63;92.65
70925;BME280;58577;52.410;13.242;2023-02-01T07:19:45;-12394.16;;;3.64;93.55
70925;BME280;58577;52.410;13.242;2023-02-01T07:22:31;-12393.25;;;3.59;94.53
70925;BME280;58577;52.410;13.242;2023-02-01T07:25:16;-12393.63;;;3.61;96.37
70925;BME280;58577;52.410;13.242;2023-02-01T07:28:02;-12392.53;;;3.55;96.35
70925;BME280;58577;52.410;13.242;2023-02-01T07:30:48;-12393.06;;;3.58;96.69
70925;BME280;58577;52.410;13.242;2023-02-01T07:33:36;-12392.81;;;3.57;97.14
70925;BME280;58577;52.410;13.242;2023-02-01T07:36:23;-12391.25;;;3.48;99.66
70925;BME280;58577;52.410;13.242;2023-02-01T07:39:08;-12388.56;;;3.32;100.00
70925;BME280;58577;52.410;13.242;2023-02-01T07:41:54;-12386.66;;;3.22;100.00
70925;BME280;58577;52.410;13.242;2023-02-01T07:44:42;-12385.38;;;3.14;100.00
70925;BME280;58577;52.410;13.242;2023-02-01T07:47:28;-12383.47;;;3.04;100.00
70925;BME280;58577;52.410;13.242;2023-02-01T07:50:14;-12381.94;;;2.95;100.00
70925;BME280;58577;52.410;13.242;2023-02-01T07:53:01;-12380.59;;;2.87;100.00
70925;BME280;58577;52.410;13.242;2023-02-01T07:55:47;-12379.94;;;2.84;100.00
70925;BME280;58577;52.410;13.242;2023-02-01T07:58:34;-12378.31;;;2.74;100.00
70925;BME280;58577;52.410;13.242;2023-02-01T08:01:23;-12376.78;;;2.66;100.00
70925;BME280;58577;52.410;13.242;2023-02-01T08:04:12;-12376.50;;;2.64;100.00
70925;BME280;58577;52.410;13.242;2023-02-01T08:06:58;-12376.41;;;2.64;100.00
70925;BME280;58577;52.410;13.242;2023-02-01T08:09:44;-12376.25;;;2.63;100.00
70925;BME280;58577;52.410;13.242;2023-02-01T08:12:30;-12374.97;;;2.55;100.00
70925;BME280;58577;52.410;13.242;2023-02-01T08:15:16;-12374.53;;;2.53;100.00
70925;BME280;58577;52.410;13.242;2023-02-01T08:18:02;-12373.34;;;2.46;100.00
70925;BME280;58577;52.410;13.242;2023-02-01T08:20:48;-12372.44;;;2.41;100.00
70925;BME280;58577;52.410;13.242;2023-02-01T08:23:35;-12372.97;;;2.44;100.00
70925;BME280;58577;52.410;13.242;2023-02-01T08:26:25;-12372.63;;;2.42;100.00
70925;BME280;58577;52.410;13.242;2023-02-01T08:29:11;-12372.97;;;2.44;100.00
70925;BME280;58577;52.410;13.242;2023-02-01T08:31:59;-12373.44;;;2.47;100.00
70925;BME280;58577;52.410;13.242;2023-02-01T08:34:45;-12374.69;;;2.54;100.00
70925;BME280;58577;52.410;13.242;2023-02-01T08:37:31;-12374.16;;;2.51;100.00
70925;BME280;58577;52.410;13.242;2023-02-01T08:40:17;-12375.25;;;2.57;100.00
70925;BME280;58577;52.410;13.242;2023-02-01T08:43:03;-12376.25;;;2.63;100.00
70925;BME280;58577;52.410;13.242;2023-02-01T08:45:50;-12375.88;;;2.61;100.00
70925;BME280;58577;52.410;13.242;2023-02-01T08:48:38;-12376.06;;;2.62;100.00
70925;BME280;58577;52.410;13.242;2023-02-01T08:51:24;-12375.69;;;2.60;100.00
70925;BME280;58577;52.410;13.242;2023-02-01T08:54:10;-12375.59;;;2.59;100.00
70925;BME280;58577;52.410;13.242;2023-02-01T08:56:56;-12374.78;;;2.54;100.00
70925;BME280;58577;52.410;13.242;2023-02-01T08:59:42;-12374.06;;;2.50;100.00
70925;BME280;58577;52.410;13.242;2023-02-01T09:02:29;-12375.16;;;2.56;100.00
70925;BME280;58577;52.410;13.242;2023-02-01T09:05:15;-12373.78;;;2.49;100.00
70925;BME280;58577;52.410;13.242;2023-02-01T09:08:04;-12374.44;;;2.52;100.00
70925;BME280;58577;52.410;13.242;2023-02-01T09:10:50;-12374.44;;;2.52;100.00
70925;BME280;58577;52.410;13.242;2023-02-01T09:13:36;-12374.97;;;2.55;100.00
70925;BME280;58577;52.410;13.242;2023-02-01T09:16:22;-12375.06;;;2.56;100.00
70925;BME280;58577;52.410;13.242;2023-02-01T09:19:08;-12374.78;;;2.54;100.00
70925;BME280;58577;52.410;13.242;2023-02-01T09:21:54;-12375.34;;;2.58;100.00
70925;BME280;58577;52.410;13.242;2023-02-01T09:24:40;-12375.44;;;2.58;100.00
70925;BME280;58577;52.410;13.242;2023-02-01T09:27:26;-12375.97;;;2.61;100.00
70925;BME280;58577;52.410;13.242;2023-02-01T09:30:12;-12376.69;;;2.65;100.00
70925;BME280;58577;52.410;13.242;2023-02-01T09:32:58;-12375.69;;;2.60;100.00
70925;BME280;58577;52.410;13.242;2023-02-01T09:35:44;-12375.34;;;2.58;100.00
70925;BME280;58577;52.410;13.242;2023-02-01T09:38:31;-12375.50;;;2.59;100.00
70925;BME280;58577;52.410;13.242;2023-02-01T09:41:51;-12375.88;;;2.61;100.00
70925;BME280;58577;52.410;13.242;2023-02-01T09:47:31;-12379.41;;;2.81;100.00
70925;BME280;58577;52.410;13.242;2023-02-01T09:50:20;-12379.31;;;2.80;100.00
70925;BME280;58577;52.410;13.242;2023-02-01T09:53:19;-12378.22;;;2.74;100.00
70925;BME280;58577;52.410;13.242;2023-02-01T09:56:14;-12378.97;;;2.78;100.00
70925;BME280;58577;52.410;13.242;2023-02-01T09:59:39;-12379.50;;;2.81;100.00
70925;BME280;58577;52.410;13.242;2023-02-01T10:02:28;-12380.69;;;2.88;100.00
70925;BME280;58577;52.410;13.242;2023-02-01T10:05:18;-12381.94;;;2.95;100.00
70925;BME280;58577;52.410;13.242;2023-02-01T10:08:25;-12379.41;;;2.81;100.00
70925;BME280;58577;52.410;13.242;2023-02-01T10:11:32;-12380.22;;;2.85;100.00
70925;BME280;58577;52.410;13.242;2023-02-01T10:14:46;-12380.13;;;2.85;100.00
70925;BME280;58577;52.410;13.242;2023-02-01T10:26:33;-12392.25;;;3.53;100.00
70925;BME280;58577;52.410;13.242;2023-02-01T10:29:26;-12389.19;;;3.36;100.00
70925;BME280;58577;52.410;13.242;2023-02-01T10:32:16;-12389.81;;;3.40;100.00
70925;BME280;58577;52.410;13.242;2023-02-01T10:35:29;-12390.34;;;3.43;100.00
70925;BME280;58577;52.410;13.242;2023-02-01T10:41:18;-12392.00;;;3.52;100.00
70925;BME280;58577;52.410;13.242;2023-02-01T10:44:14;-12391.25;;;3.48;100.00
70925;BME280;58577;52.410;13.242;2023-02-01T10:47:00;-12393.06;;;3.58;100.00
70925;BME280;58577;52.410;13.242;2023-02-01T10:52:48;-12397.41;;;3.83;100.00
70925;BME280;58577;52.410;13.242;2023-02-01T10:55:39;-12398.88;;;3.91;100.00
70925;BME280;58577;52.410;13.242;2023-02-01T10:58:28;-12403.84;;;4.19;100.00
70925;BME280;58577;52.410;13.242;2023-02-01T11:01:28;-12402.22;;;4.10;100.00
70925;BME280;58577;52.410;13.242;2023-02-01T11:04:18;-12403.28;;;4.16;100.00
70925;BME280;58577;52.410;13.242;2023-02-01T11:07:19;-12410.44;;;4.57;100.00
70925;BME280;58577;52.410;13.242;2023-02-01T11:10:38;-12407.25;;;4.39;100.00
70925;BME280;58577;52.410;13.242;2023-02-01T11:13:31;-12406.00;;;4.31;100.00
70925;BME280;58577;52.410;13.242;2023-02-01T11:16:19;-12410.25;;;4.56;100.00
70925;BME280;58577;52.410;13.242;2023-02-01T11:19:05;-12409.63;;;4.52;100.00
70925;BME280;58577;52.410;13.242;2023-02-01T11:21:54;-12412.94;;;4.71;100.00
70925;BME280;58577;52.410;13.242;2023-02-01T11:24:44;-12414.50;;;4.80;100.00
70925;BME280;58577;52.410;13.242;2023-02-01T11:27:32;-12418.81;;;5.04;100.00
70925;BME280;58577;52.410;13.242;2023-02-01T11:30:34;-12428.66;;;5.60;99.33
70925;BME280;58577;52.410;13.242;2023-02-01T11:33:25;-12427.03;;;5.51;100.00
70925;BME280;58577;52.410;13.242;2023-02-01T11:36:17;-12429.09;;;5.63;97.33
70925;BME280;58577;52.410;13.242;2023-02-01T11:42:17;-12427.22;;;5.52;94.91
70925;BME280;58577;52.410;13.242;2023-02-01T11:45:26;-12421.25;;;5.18;94.86
70925;BME280;58577;52.410;13.242;2023-02-01T11:48:15;-12413.69;;;4.75;96.00
70925;BME280;58577;52.410;13.242;2023-02-01T11:54:08;-12413.22;;;4.72;97.09
70925;BME280;58577;52.410;13.242;2023-02-01T12:09:31;-12429.19;;;5.63;94.91
70925;BME280;58577;52.410;13.242;2023-02-01T12:12:28;-12431.19;;;5.75;93.43
70925;BME280;58577;52.410;13.242;2023-02-01T12:15:22;-12427.13;;;5.51;91.69
70925;BME280;58577;52.410;13.242;2023-02-01T12:18:31;-12426.03;;;5.45;95.05
70925;BME280;58577;52.410;13.242;2023-02-01T12:41:22;-12423.25;;;5.29;90.55
70925;BME280;58577;52.410;13.242;2023-02-01T12:44:24;-12423.06;;;5.28;90.96
70925;BME280;58577;52.410;13.242;2023-02-01T12:47:19;-12423.50;;;5.31;88.83
70925;BME280;58577;52.410;13.242;2023-02-01T12:50:43;-12423.06;;;5.28;90.68
70925;BME280;58577;52.410;13.242;2023-02-01T12:57:09;-12419.28;;;5.07;90.47
70925;BME280;58577;52.410;13.242;2023-02-01T13:00:04;-12417.09;;;4.95;90.09
70925;BME280;58577;52.410;13.242;2023-02-01T13:02:54;-12417.47;;;4.97;91.32
70925;BME280;58577;52.410;13.242;2023-02-01T13:05:53;-12417.38;;;4.96;91.88
70925;BME280;58577;52.410;13.242;2023-02-01T13:09:00;-12419.00;;;5.05;91.87
70925;BME280;58577;52.410;13.242;2023-02-01T13:11:50;-12420.63;;;5.15;91.86
70925;BME280;58577;52.410;13.242;2023-02-01T13:14:42;-12419.91;;;5.10;91.16
70925;BME280;58577;52.410;13.242;2023-02-01T13:17:33;-12420.91;;;5.16;90.29
70925;BME280;58577;52.410;13.242;2023-02-01T13:23:21;-12418.00;;;5.00;91.13
70925;BME280;58577;52.410;13.242;2023-02-01T13:26:10;-12420.00;;;5.11;92.12
70925;BME280;58577;52.410;13.242;2023-02-01T13:29:04;-12418.72;;;5.04;91.61
70925;BME280;58577;52.410;13.242;2023-02-01T13:35:33;-12420.34;;;5.13;90.77
70925;BME280;58577;52.410;13.242;2023-02-01T13:45:14;-12421.34;;;5.19;90.73
70925;BME280;58577;52.410;13.242;2023-02-01T13:48:06;-12421.72;;;5.21;89.12
70925;BME280;58577;52.410;13.242;2023-02-01T13:51:00;-12421.53;;;5.20;90.57
70925;BME280;58577;52.410;13.242;2023-02-01T13:53:48;-12421.16;;;5.18;90.51
70925;BME280;58577;52.410;13.242;2023-02-01T13:56:42;-12423.97;;;5.34;90.12
70925;BME280;58577;52.410;13.242;2023-02-01T13:59:50;-12423.59;;;5.31;91.10
70925;BME280;58577;52.410;13.242;2023-02-01T14:08:36;-12420.53;;;5.14;92.39
70925;BME280;58577;52.410;13.242;2023-02-01T14:11:35;-12418.19;;;5.01;91.27
70925;BME280;58577;52.410;13.242;2023-02-01T14:23:21;-12416.75;;;4.92;92.87
70925;BME280;58577;52.410;13.242;2023-02-01T14:26:15;-12416.13;;;4.89;91.65
70925;BME280;58577;52.410;13.242;2023-02-01T14:32:16;-12417.19;;;4.95;89.72
70925;BME280;58577;52.410;13.242;2023-02-01T14:35:08;-12416.66;;;4.92;89.97
70925;BME280;58577;52.410;13.242;2023-02-01T14:38:02;-12416.94;;;4.93;89.86
70925;BME280;58577;52.410;13.242;2023-02-01T14:40:49;-12416.94;;;4.93;87.88
70925;BME280;58577;52.410;13.242;2023-02-01T14:47:03;-12417.47;;;4.97;87.63
70925;BME280;58577;52.410;13.242;2023-02-01T14:50:00;-12417.84;;;4.99;86.47
70925;BME280;58577;52.410;13.242;2023-02-01T14:56:07;-12417.56;;;4.97;87.30
70925;BME280;58577;52.410;13.242;2023-02-01T14:59:00;-12417.47;;;4.97;88.47
70925;BME280;58577;52.410;13.242;2023-02-01T15:01:53;-12412.88;;;4.70;90.27
70925;BME280;58577;52.410;13.242;2023-02-01T15:04:41;-12408.25;;;4.44;96.06
70925;BME280;58577;52.410;13.242;2023-02-01T15:07:28;-12403.66;;;4.18;98.32
70925;BME280;58577;52.410;13.242;2023-02-01T15:10:14;-12401.22;;;4.04;100.00
70925;BME280;58577;52.410;13.242;2023-02-01T15:13:00;-12398.50;;;3.89;100.00
70925;BME280;58577;52.410;13.242;2023-02-01T15:16:04;-12393.06;;;3.58;100.00
70925;BME280;58577;52.410;13.242;2023-02-01T15:19:13;-12389.44;;;3.38;100.00
70925;BME280;58577;52.410;13.242;2023-02-01T15:22:03;-12388.00;;;3.29;100.00
70925;BME280;58577;52.410;13.242;2023-02-01T15:25:19;-12385.47;;;3.15;100.00
70925;BME280;58577;52.410;13.242;2023-02-01T15:28:16;-12384.75;;;3.11;100.00
70925;BME280;58577;52.410;13.242;2023-02-01T15:31:09;-12382.56;;;2.99;100.00
70925;BME280;58577;52.410;13.242;2023-02-01T15:34:02;-12381.50;;;2.92;100.00
70925;BME280;58577;52.410;13.242;2023-02-01T15:37:15;-12379.69;;;2.82;100.00
70925;BME280;58577;52.410;13.242;2023-02-01T15:42:58;-12380.31;;;2.86;100.00
70925;BME280;58577;52.410;13.242;2023-02-01T15:45:45;-12379.50;;;2.81;100.00
70925;BME280;58577;52.410;13.242;2023-02-01T15:48:52;-12379.59;;;2.82;100.00
70925;BME280;58577;52.410;13.242;2023-02-01T15:51:44;-12379.22;;;2.80;100.00
70925;BME280;58577;52.410;13.242;2023-02-01T15:54:45;-12379.94;;;2.84;100.00
70925;BME280;58577;52.410;13.242;2023-02-01T15:57:35;-12380.59;;;2.87;100.00
70925;BME280;58577;52.410;13.242;2023-02-01T16:00:25;-12378.13;;;2.73;100.00
70925;BME280;58577;52.410;13.242;2023-02-01T16:03:39;-12375.69;;;2.60;100.00
70925;BME280;58577;52.410;13.242;2023-02-01T16:06:29;-12375.88;;;2.61;100.00
70925;BME280;58577;52.410;13.242;2023-02-01T16:09:17;-12372.06;;;2.39;100.00
70925;BME280;58577;52.410;13.242;2023-02-01T16:12:03;-12367.91;;;2.15;100.00
70925;BME280;58577;52.410;13.242;2023-02-01T16:14:49;-12365.19;;;2.00;100.00
70925;BME280;58577;52.410;13.242;2023-02-01T16:17:44;-12360.47;;;1.73;100.00
70925;BME280;58577;52.410;13.242;2023-02-01T16:20:31;-12357.38;;;1.56;100.00
70925;BME280;58577;52.410;13.242;2023-02-01T16:23:18;-12355.56;;;1.46;100.00
70925;BME280;58577;52.410;13.242;2023-02-01T16:26:06;-12355.47;;;1.45;100.00
70925;BME280;58577;52.410;13.242;2023-02-01T16:28:52;-12349.94;;;1.14;100.00
70925;BME280;58577;52.410;13.242;2023-02-01T16:31:39;-12350.66;;;1.18;100.00
70925;BME280;58577;52.410;13.242;2023-02-01T16:34:25;-12350.94;;;1.20;100.00
70925;BME280;58577;52.410;13.242;2023-02-01T16:37:13;-12352.31;;;1.27;100.00
70925;BME280;58577;52.410;13.242;2023-02-01T16:40:01;-12350.66;;;1.18;100.00
70925;BME280;58577;52.410;13.242;2023-02-01T16:42:56;-12350.94;;;1.20;100.00
70925;BME280;58577;52.410;13.242;2023-02-01T16:45:43;-12351.41;;;1.22;100.00
70925;BME280;58577;52.410;13.242;2023-02-01T16:48:35;-12352.13;;;1.26;100.00
70925;BME280;58577;52.410;13.242;2023-02-01T16:51:28;-12353.13;;;1.32;100.00
70925;BME280;58577;52.410;13.242;2023-02-01T16:54:20;-12353.56;;;1.34;100.00